Norwegian Epic — C6XP7 — position and weather

sailwx.info

Track history (hours):
 
Tides and Currents Weather Stations Pressure Air Temp Water Temp Dewpoint Dewpoint Depression Visibility Wind Speed Wind Dir Waves Ship Positions

Norwegian Epic

Last reported at 2019-Feb-22 20:50 UTC. Time now 2019-Feb-23 17:41 UTC.
Position N 26°28' W 079°27'.

Length 329 m; draft 9.2 m.

Type: Passenger vessel. MMSI: 311018500.

Date/timePositionNaut miles runAvg speedWind from/ knotsBaromVisibWave heightAir tempDewpointWater temp
2019-Feb-22 20:50N 26°28' W 079°27'411.8
2019-Feb-22 20:30N 26°24' W 079°28'611.7
2019-Feb-22 20:00N 26°18' W 079°29'611.7
2019-Feb-22 19:30N 26°13' W 079°31'611.5
2019-Feb-22 19:00N 26°07' W 079°33'611.6
2019-Feb-22 18:30N 26°01' W 079°34'611.8
2019-Feb-22 18:00N 25°56' W 079°36'612.0
2019-Feb-22 17:30N 25°50' W 079°38'611.9
2019-Feb-22 17:00N 25°44' W 079°40'612.0
2019-Feb-22 16:30N 25°38' W 079°40'612.0
2019-Feb-22 16:00N 25°32' W 079°40'612.2
2019-Feb-22 15:30N 25°26' W 079°39'612.2
2019-Feb-22 15:00N 25°20' W 079°39'712.0
2019-Feb-22 14:27N 25°14' W 079°38'7 1.6
2019-Feb-22 10:17N 25°19' W 079°33'3 9.6
2019-Feb-22 09:56N 25°22' W 079°33'4 9.4
2019-Feb-22 09:30N 25°26' W 079°33'5 9.1
2019-Feb-22 09:00N 25°31' W 079°34'4 8.7
2019-Feb-22 08:30N 25°35' W 079°33'4 8.6
2019-Feb-22 08:00N 25°39' W 079°33'4 8.7
2019-Feb-22 07:30N 25°44' W 079°33'5 9.7
2019-Feb-22 07:00N 25°48' W 079°32'5 9.7
2019-Feb-22 06:30N 25°53' W 079°30'5 9.4
2019-Feb-22 06:00N 25°57' W 079°28'5 9.6
2019-Feb-22 05:30N 26°02' W 079°27'5 9.9
2019-Feb-22 05:00N 26°06' W 079°25'510.3
2019-Feb-22 04:30N 26°11' W 079°23'510.3
2019-Feb-22 04:00N 26°16' W 079°21'610.8
2019-Feb-22 03:28N 26°17' W 079°15'  
2019-Feb-19 11:57N 26°15' W 078°48'612.2
2019-Feb-19 11:29N 26°17' W 078°54'612.4
2019-Feb-19 11:00N 26°19' W 079°01'612.5
2019-Feb-19 10:30N 26°21' W 079°07'612.3
2019-Feb-19 10:00N 26°23' W 079°14'714.2
2019-Feb-19 09:30N 26°26' W 079°21'813.7
2019-Feb-19 08:55N 26°33' W 079°25'6312.8
2019-Feb-19 04:00N 27°36' W 079°26'3111.6
2019-Feb-19 01:21N 28°02' W 079°45'813.5
2019-Feb-19 00:48N 28°05' W 079°52'  
Track history (hours):
 
Tides and Currents Weather Stations Pressure Air Temp Water Temp Dewpoint Dewpoint Depression Visibility Wind Speed Wind Dir Waves Ship Positions

Norwegian Epic

Last reported at 2019-Feb-22 20:50 UTC. Time now 2019-Feb-23 17:41 UTC.
Position N 26°28' W 079°27'.

Length 329 m; draft 9.2 m.

Type: Passenger vessel. MMSI: 311018500.

Date/timePositionNaut miles runAvg speedWind from/ knotsBaromVisibWave heightAir tempDewpointWater temp
2019-Feb-22 20:50N 26°28' W 079°27'411.8
2019-Feb-22 20:30N 26°24' W 079°28'611.7
2019-Feb-22 20:00N 26°18' W 079°29'611.7
2019-Feb-22 19:30N 26°13' W 079°31'611.5
2019-Feb-22 19:00N 26°07' W 079°33'611.6
2019-Feb-22 18:30N 26°01' W 079°34'611.8
2019-Feb-22 18:00N 25°56' W 079°36'612.0
2019-Feb-22 17:30N 25°50' W 079°38'611.9
2019-Feb-22 17:00N 25°44' W 079°40'612.0
2019-Feb-22 16:30N 25°38' W 079°40'612.0
2019-Feb-22 16:00N 25°32' W 079°40'612.2
2019-Feb-22 15:30N 25°26' W 079°39'612.2
2019-Feb-22 15:00N 25°20' W 079°39'712.0
2019-Feb-22 14:27N 25°14' W 079°38'7 1.6
2019-Feb-22 10:17N 25°19' W 079°33'3 9.6
2019-Feb-22 09:56N 25°22' W 079°33'4 9.4
2019-Feb-22 09:30N 25°26' W 079°33'5 9.1
2019-Feb-22 09:00N 25°31' W 079°34'4 8.7
2019-Feb-22 08:30N 25°35' W 079°33'4 8.6
2019-Feb-22 08:00N 25°39' W 079°33'4 8.7
2019-Feb-22 07:30N 25°44' W 079°33'5 9.7
2019-Feb-22 07:00N 25°48' W 079°32'5 9.7
2019-Feb-22 06:30N 25°53' W 079°30'5 9.4
2019-Feb-22 06:00N 25°57' W 079°28'5 9.6
2019-Feb-22 05:30N 26°02' W 079°27'5 9.9
2019-Feb-22 05:00N 26°06' W 079°25'510.3
2019-Feb-22 04:30N 26°11' W 079°23'510.3
2019-Feb-22 04:00N 26°16' W 079°21'610.8
2019-Feb-22 03:28N 26°17' W 079°15'  
2019-Feb-19 11:57N 26°15' W 078°48'612.2
2019-Feb-19 11:29N 26°17' W 078°54'612.4
2019-Feb-19 11:00N 26°19' W 079°01'612.5
2019-Feb-19 10:30N 26°21' W 079°07'612.3
2019-Feb-19 10:00N 26°23' W 079°14'714.2
2019-Feb-19 09:30N 26°26' W 079°21'813.7
2019-Feb-19 08:55N 26°33' W 079°25'6312.8
2019-Feb-19 04:00N 27°36' W 079°26'3111.6
2019-Feb-19 01:21N 28°02' W 079°45'813.5
2019-Feb-19 00:48N 28°05' W 079°52'  

Dump ship's entire track history